Toukimaru — JD2543 — position and weather

sailwx.info

Track history (hours):
 
Tides and Currents Weather Stations Pressure Air Temp Water Temp Dewpoint Dewpoint Depression Visibility Wind Speed Wind Dir Waves Ship Positions

Toukimaru

Last reported at 2018-Jun-21 22:47 UTC. Time now 2018-Jun-24 05:06 UTC.
Position N 35°31' E 139°58'.

Length 75 m; draft 4.5 m.

Type: Cargo ship. MMSI: 431000411.

Date/timePositionNaut miles runAvg speedWind from/ knotsBaromVisibWave heightAir tempDewpointWater temp
2018-Jun-21 22:47N 35°31' E 139°58'311.6
2018-Jun-21 22:29N 35°29' E 139°54'611.9
2018-Jun-21 22:00N 35°26' E 139°49'611.7
2018-Jun-21 21:30N 35°21' E 139°45'511.0
2018-Jun-21 21:00N 35°16' E 139°47'  
2018-Jun-17 01:14N 35°10' E 139°44'512.8
2018-Jun-17 00:52N 35°14' E 139°46'512.7
2018-Jun-17 00:30N 35°18' E 139°44'611.6
2018-Jun-17 00:00N 35°24' E 139°42'5 9.3
2018-Jun-16 23:30N 35°28' E 139°42'0 0.0
2018-Jun-16 23:00N 35°28' E 139°42'0 0.0
2018-Jun-16 22:27N 35°28' E 139°42'0 0.0
2018-Jun-16 22:00N 35°28' E 139°42'0 0.0
2018-Jun-16 21:30N 35°28' E 139°42'0 0.0
2018-Jun-16 21:00N 35°28' E 139°42'0 0.0
2018-Jun-16 20:30N 35°28' E 139°42'0 0.0
2018-Jun-16 20:00N 35°28' E 139°42'0 0.0
2018-Jun-16 19:30N 35°28' E 139°42'0 0.0
2018-Jun-16 19:00N 35°28' E 139°42'0 0.0
2018-Jun-16 18:27N 35°28' E 139°42'0 0.0
2018-Jun-16 18:00N 35°28' E 139°42'0 0.0
2018-Jun-16 17:30N 35°28' E 139°42'0 0.0
2018-Jun-16 17:00N 35°28' E 139°42'0 0.0
2018-Jun-16 16:30N 35°28' E 139°42'0 0.0
2018-Jun-16 16:00N 35°28' E 139°42'0 0.1
2018-Jun-16 15:30N 35°28' E 139°42'0 0.1
2018-Jun-16 15:00N 35°28' E 139°42'0 0.0
2018-Jun-16 14:30N 35°28' E 139°42'0 0.0
2018-Jun-16 14:00N 35°28' E 139°42'0 0.1
2018-Jun-16 13:30N 35°28' E 139°42'0 0.1
2018-Jun-16 13:00N 35°28' E 139°42'0 0.0
2018-Jun-16 12:30N 35°28' E 139°42'0 0.1
2018-Jun-16 12:00N 35°28' E 139°42'1 2.8
2018-Jun-16 11:28N 35°27' E 139°42'0 0.0
2018-Jun-16 10:58N 35°27' E 139°42'0 0.0
2018-Jun-16 10:31N 35°27' E 139°42'0 0.0
2018-Jun-16 09:58N 35°27' E 139°42'0 0.0
2018-Jun-16 09:28N 35°27' E 139°42'0 0.0
2018-Jun-16 09:01N 35°27' E 139°42'0 0.0
2018-Jun-16 08:28N 35°27' E 139°42'0 0.0
2018-Jun-16 07:58N 35°27' E 139°42'0 0.0
2018-Jun-16 07:31N 35°27' E 139°42'0 0.0
2018-Jun-16 06:58N 35°27' E 139°42'0 0.0
2018-Jun-16 06:31N 35°27' E 139°42'0 0.0
2018-Jun-16 06:01N 35°27' E 139°42'0 0.0
2018-Jun-16 05:28N 35°27' E 139°42'0 0.0
2018-Jun-16 04:58N 35°27' E 139°42'0 0.0
2018-Jun-16 04:31N 35°27' E 139°42'0 0.1
2018-Jun-16 04:01N 35°27' E 139°42'3 5.7
2018-Jun-16 03:30N 35°25' E 139°45'611.0
2018-Jun-16 03:00N 35°21' E 139°49'1 2.0
2018-Jun-16 02:28N 35°20' E 139°50'0 0.0
2018-Jun-16 02:01N 35°20' E 139°50'0 0.0
2018-Jun-16 01:22N 35°20' E 139°50'0 0.0
2018-Jun-16 00:58N 35°20' E 139°50'0 0.0
2018-Jun-16 00:28N 35°20' E 139°50'0 0.0
2018-Jun-15 23:58N 35°20' E 139°50'0 0.0
2018-Jun-15 23:25N 35°20' E 139°50'0 0.0
2018-Jun-15 22:58N 35°20' E 139°50'0 0.8
2018-Jun-15 22:29N 35°20' E 139°50'3 6.6
2018-Jun-15 22:00N 35°22' E 139°47'0 0.3
2018-Jun-15 21:29N 35°22' E 139°47'0 0.0
2018-Jun-15 20:59N 35°22' E 139°47'0 0.1
2018-Jun-15 20:26N 35°22' E 139°47'0 0.0
2018-Jun-15 19:59N 35°22' E 139°47'0 0.0
2018-Jun-15 19:29N 35°22' E 139°47'0 0.0
2018-Jun-15 18:56N 35°22' E 139°47'0 0.1
2018-Jun-15 18:29N 35°22' E 139°47'0 0.1
2018-Jun-15 17:59N 35°22' E 139°47'0 0.1
2018-Jun-15 17:29N 35°22' E 139°47'0 0.0
2018-Jun-15 16:59N 35°22' E 139°47'0 0.0
2018-Jun-15 16:29N 35°22' E 139°47'0 0.0
2018-Jun-15 15:59N 35°22' E 139°47'0 0.0
2018-Jun-15 15:29N 35°22' E 139°47'0 0.0
2018-Jun-15 14:59N 35°22' E 139°47'0 0.0
2018-Jun-15 14:29N 35°22' E 139°47'0 0.0
2018-Jun-15 13:59N 35°22' E 139°47'0 0.0
2018-Jun-15 13:29N 35°22' E 139°47'0 0.0
2018-Jun-15 12:56N 35°22' E 139°47'0 0.0
2018-Jun-15 12:29N 35°22' E 139°47'0 0.0
2018-Jun-15 11:59N 35°22' E 139°47'0 0.0
2018-Jun-15 11:29N 35°22' E 139°47'0 0.0
2018-Jun-15 10:59N 35°22' E 139°47'0 0.0
2018-Jun-15 10:29N 35°22' E 139°47'0 0.0
2018-Jun-15 09:59N 35°22' E 139°47'0 0.0
2018-Jun-15 09:29N 35°22' E 139°47'0 0.0
2018-Jun-15 08:59N 35°22' E 139°47'0 0.0
2018-Jun-15 08:29N 35°22' E 139°47'0 0.0
2018-Jun-15 07:56N 35°22' E 139°47'0 0.0
2018-Jun-15 07:26N 35°22' E 139°47'0 0.0
2018-Jun-15 06:59N 35°22' E 139°47'3 6.3
2018-Jun-15 06:30N 35°25' E 139°45'4 8.7
2018-Jun-15 06:00N 35°28' E 139°42'0 0.1
2018-Jun-15 05:30N 35°28' E 139°42'0 0.0
2018-Jun-15 05:00N 35°28' E 139°42'0 0.0
2018-Jun-15 04:30N 35°28' E 139°42'0 0.0
2018-Jun-15 04:00N 35°28' E 139°42'0 0.0
2018-Jun-15 03:30N 35°28' E 139°42'0 0.0
2018-Jun-15 02:57N 35°28' E 139°42'0 0.0
2018-Jun-15 02:24N 35°28' E 139°42'0 0.0
2018-Jun-15 02:00N 35°28' E 139°42'0 0.0
2018-Jun-15 01:30N 35°28' E 139°42'0 0.1
2018-Jun-15 01:00N 35°28' E 139°42'0 0.1
2018-Jun-15 00:30N 35°28' E 139°42'0 0.1
2018-Jun-15 00:00N 35°28' E 139°42'0 0.0
2018-Jun-14 23:30N 35°28' E 139°42'0 0.1
2018-Jun-14 23:00N 35°28' E 139°42'0 0.0
2018-Jun-14 22:30N 35°28' E 139°42'0 0.1
2018-Jun-14 22:00N 35°28' E 139°42'0 0.1
2018-Jun-14 21:30N 35°28' E 139°42'0 0.1
2018-Jun-14 21:00N 35°28' E 139°42'0 0.0
2018-Jun-14 20:30N 35°28' E 139°42'0 0.1
2018-Jun-14 20:00N 35°28' E 139°42'0 0.1
2018-Jun-14 19:30N 35°28' E 139°42'0 0.1
2018-Jun-14 19:00N 35°28' E 139°42'0 0.1
2018-Jun-14 18:30N 35°28' E 139°42'0 0.0
2018-Jun-14 18:00N 35°28' E 139°42'0 0.1
2018-Jun-14 17:30N 35°28' E 139°42'0 0.0
2018-Jun-14 17:00N 35°28' E 139°42'0 0.0
2018-Jun-14 16:24N 35°28' E 139°42'0 0.1
2018-Jun-14 16:00N 35°28' E 139°42'0 0.1
2018-Jun-14 15:27N 35°28' E 139°42'0 0.0
2018-Jun-14 15:00N 35°28' E 139°42'0 0.0
2018-Jun-14 14:30N 35°28' E 139°42'0 0.0
2018-Jun-14 14:00N 35°28' E 139°42'0 0.0
2018-Jun-14 13:30N 35°28' E 139°42'0 0.0
2018-Jun-14 13:00N 35°28' E 139°42'0 0.0
2018-Jun-14 12:30N 35°28' E 139°42'1 1.1
2018-Jun-14 12:00N 35°28' E 139°42'1 2.5
2018-Jun-14 11:30N 35°27' E 139°42'0 0.0
2018-Jun-14 10:59N 35°27' E 139°42'0 0.0
2018-Jun-14 10:29N 35°27' E 139°42'0 0.0
2018-Jun-14 09:59N 35°27' E 139°42'0 0.0
2018-Jun-14 09:29N 35°27' E 139°42'0 0.0
2018-Jun-14 08:59N 35°27' E 139°42'0 0.0
2018-Jun-14 08:29N 35°27' E 139°42'0 0.0
2018-Jun-14 07:59N 35°27' E 139°42'0 0.0
2018-Jun-14 07:26N 35°27' E 139°42'0 0.0
2018-Jun-14 06:59N 35°27' E 139°42'1 1.7
2018-Jun-14 06:30N 35°27' E 139°43'5 9.8
2018-Jun-14 06:00N 35°30' E 139°48'611.9
2018-Jun-14 05:28N 35°34' E 139°54'4 0.4
2018-Jun-13 19:00N 35°30' E 139°53'611.5
2018-Jun-13 18:30N 35°25' E 139°48'611.3
2018-Jun-13 18:00N 35°21' E 139°45'510.9
2018-Jun-13 17:30N 35°15' E 139°47'24910.3
2018-Jun-12 17:16N 33°50' E 135°03'412.3
2018-Jun-12 16:59N 33°53' E 135°00'1012.3
2018-Jun-12 16:08N 34°01' E 134°52'412.0
2018-Jun-12 15:49N 34°03' E 134°49'2112.2
2018-Jun-12 14:05N 34°18' E 134°30'111.4
2018-Jun-12 13:59N 34°18' E 134°29'611.7
2018-Jun-12 13:30N 34°20' E 134°23'  
Track history (hours):
 
Tides and Currents Weather Stations Pressure Air Temp Water Temp Dewpoint Dewpoint Depression Visibility Wind Speed Wind Dir Waves Ship Positions

Toukimaru

Last reported at 2018-Jun-21 22:47 UTC. Time now 2018-Jun-24 05:06 UTC.
Position N 35°31' E 139°58'.

Length 75 m; draft 4.5 m.

Type: Cargo ship. MMSI: 431000411.

Date/timePositionNaut miles runAvg speedWind from/ knotsBaromVisibWave heightAir tempDewpointWater temp
2018-Jun-21 22:47N 35°31' E 139°58'311.6
2018-Jun-21 22:29N 35°29' E 139°54'611.9
2018-Jun-21 22:00N 35°26' E 139°49'611.7
2018-Jun-21 21:30N 35°21' E 139°45'511.0
2018-Jun-21 21:00N 35°16' E 139°47'  
2018-Jun-17 01:14N 35°10' E 139°44'512.8
2018-Jun-17 00:52N 35°14' E 139°46'512.7
2018-Jun-17 00:30N 35°18' E 139°44'611.6
2018-Jun-17 00:00N 35°24' E 139°42'5 9.3
2018-Jun-16 23:30N 35°28' E 139°42'0 0.0
2018-Jun-16 23:00N 35°28' E 139°42'0 0.0
2018-Jun-16 22:27N 35°28' E 139°42'0 0.0
2018-Jun-16 22:00N 35°28' E 139°42'0 0.0
2018-Jun-16 21:30N 35°28' E 139°42'0 0.0
2018-Jun-16 21:00N 35°28' E 139°42'0 0.0
2018-Jun-16 20:30N 35°28' E 139°42'0 0.0
2018-Jun-16 20:00N 35°28' E 139°42'0 0.0
2018-Jun-16 19:30N 35°28' E 139°42'0 0.0
2018-Jun-16 19:00N 35°28' E 139°42'0 0.0
2018-Jun-16 18:27N 35°28' E 139°42'0 0.0
2018-Jun-16 18:00N 35°28' E 139°42'0 0.0
2018-Jun-16 17:30N 35°28' E 139°42'0 0.0
2018-Jun-16 17:00N 35°28' E 139°42'0 0.0
2018-Jun-16 16:30N 35°28' E 139°42'0 0.0
2018-Jun-16 16:00N 35°28' E 139°42'0 0.1
2018-Jun-16 15:30N 35°28' E 139°42'0 0.1
2018-Jun-16 15:00N 35°28' E 139°42'0 0.0
2018-Jun-16 14:30N 35°28' E 139°42'0 0.0
2018-Jun-16 14:00N 35°28' E 139°42'0 0.1
2018-Jun-16 13:30N 35°28' E 139°42'0 0.1
2018-Jun-16 13:00N 35°28' E 139°42'0 0.0
2018-Jun-16 12:30N 35°28' E 139°42'0 0.1
2018-Jun-16 12:00N 35°28' E 139°42'1 2.8
2018-Jun-16 11:28N 35°27' E 139°42'0 0.0
2018-Jun-16 10:58N 35°27' E 139°42'0 0.0
2018-Jun-16 10:31N 35°27' E 139°42'0 0.0
2018-Jun-16 09:58N 35°27' E 139°42'0 0.0
2018-Jun-16 09:28N 35°27' E 139°42'0 0.0
2018-Jun-16 09:01N 35°27' E 139°42'0 0.0
2018-Jun-16 08:28N 35°27' E 139°42'0 0.0
2018-Jun-16 07:58N 35°27' E 139°42'0 0.0
2018-Jun-16 07:31N 35°27' E 139°42'0 0.0
2018-Jun-16 06:58N 35°27' E 139°42'0 0.0
2018-Jun-16 06:31N 35°27' E 139°42'0 0.0
2018-Jun-16 06:01N 35°27' E 139°42'0 0.0
2018-Jun-16 05:28N 35°27' E 139°42'0 0.0
2018-Jun-16 04:58N 35°27' E 139°42'0 0.0
2018-Jun-16 04:31N 35°27' E 139°42'0 0.1
2018-Jun-16 04:01N 35°27' E 139°42'3 5.7
2018-Jun-16 03:30N 35°25' E 139°45'611.0
2018-Jun-16 03:00N 35°21' E 139°49'1 2.0
2018-Jun-16 02:28N 35°20' E 139°50'0 0.0
2018-Jun-16 02:01N 35°20' E 139°50'0 0.0
2018-Jun-16 01:22N 35°20' E 139°50'0 0.0
2018-Jun-16 00:58N 35°20' E 139°50'0 0.0
2018-Jun-16 00:28N 35°20' E 139°50'0 0.0
2018-Jun-15 23:58N 35°20' E 139°50'0 0.0
2018-Jun-15 23:25N 35°20' E 139°50'0 0.0
2018-Jun-15 22:58N 35°20' E 139°50'0 0.8
2018-Jun-15 22:29N 35°20' E 139°50'3 6.6
2018-Jun-15 22:00N 35°22' E 139°47'0 0.3
2018-Jun-15 21:29N 35°22' E 139°47'0 0.0
2018-Jun-15 20:59N 35°22' E 139°47'0 0.1
2018-Jun-15 20:26N 35°22' E 139°47'0 0.0
2018-Jun-15 19:59N 35°22' E 139°47'0 0.0
2018-Jun-15 19:29N 35°22' E 139°47'0 0.0
2018-Jun-15 18:56N 35°22' E 139°47'0 0.1
2018-Jun-15 18:29N 35°22' E 139°47'0 0.1
2018-Jun-15 17:59N 35°22' E 139°47'0 0.1
2018-Jun-15 17:29N 35°22' E 139°47'0 0.0
2018-Jun-15 16:59N 35°22' E 139°47'0 0.0
2018-Jun-15 16:29N 35°22' E 139°47'0 0.0
2018-Jun-15 15:59N 35°22' E 139°47'0 0.0
2018-Jun-15 15:29N 35°22' E 139°47'0 0.0
2018-Jun-15 14:59N 35°22' E 139°47'0 0.0
2018-Jun-15 14:29N 35°22' E 139°47'0 0.0
2018-Jun-15 13:59N 35°22' E 139°47'0 0.0
2018-Jun-15 13:29N 35°22' E 139°47'0 0.0
2018-Jun-15 12:56N 35°22' E 139°47'0 0.0
2018-Jun-15 12:29N 35°22' E 139°47'0 0.0
2018-Jun-15 11:59N 35°22' E 139°47'0 0.0
2018-Jun-15 11:29N 35°22' E 139°47'0 0.0
2018-Jun-15 10:59N 35°22' E 139°47'0 0.0
2018-Jun-15 10:29N 35°22' E 139°47'0 0.0
2018-Jun-15 09:59N 35°22' E 139°47'0 0.0
2018-Jun-15 09:29N 35°22' E 139°47'0 0.0
2018-Jun-15 08:59N 35°22' E 139°47'0 0.0
2018-Jun-15 08:29N 35°22' E 139°47'0 0.0
2018-Jun-15 07:56N 35°22' E 139°47'0 0.0
2018-Jun-15 07:26N 35°22' E 139°47'0 0.0
2018-Jun-15 06:59N 35°22' E 139°47'3 6.3
2018-Jun-15 06:30N 35°25' E 139°45'4 8.7
2018-Jun-15 06:00N 35°28' E 139°42'0 0.1
2018-Jun-15 05:30N 35°28' E 139°42'0 0.0
2018-Jun-15 05:00N 35°28' E 139°42'0 0.0
2018-Jun-15 04:30N 35°28' E 139°42'0 0.0
2018-Jun-15 04:00N 35°28' E 139°42'0 0.0
2018-Jun-15 03:30N 35°28' E 139°42'0 0.0
2018-Jun-15 02:57N 35°28' E 139°42'0 0.0
2018-Jun-15 02:24N 35°28' E 139°42'0 0.0
2018-Jun-15 02:00N 35°28' E 139°42'0 0.0
2018-Jun-15 01:30N 35°28' E 139°42'0 0.1
2018-Jun-15 01:00N 35°28' E 139°42'0 0.1
2018-Jun-15 00:30N 35°28' E 139°42'0 0.1
2018-Jun-15 00:00N 35°28' E 139°42'0 0.0
2018-Jun-14 23:30N 35°28' E 139°42'0 0.1
2018-Jun-14 23:00N 35°28' E 139°42'0 0.0
2018-Jun-14 22:30N 35°28' E 139°42'0 0.1
2018-Jun-14 22:00N 35°28' E 139°42'0 0.1
2018-Jun-14 21:30N 35°28' E 139°42'0 0.1
2018-Jun-14 21:00N 35°28' E 139°42'0 0.0
2018-Jun-14 20:30N 35°28' E 139°42'0 0.1
2018-Jun-14 20:00N 35°28' E 139°42'0 0.1
2018-Jun-14 19:30N 35°28' E 139°42'0 0.1
2018-Jun-14 19:00N 35°28' E 139°42'0 0.1
2018-Jun-14 18:30N 35°28' E 139°42'0 0.0
2018-Jun-14 18:00N 35°28' E 139°42'0 0.1
2018-Jun-14 17:30N 35°28' E 139°42'0 0.0
2018-Jun-14 17:00N 35°28' E 139°42'0 0.0
2018-Jun-14 16:24N 35°28' E 139°42'0 0.1
2018-Jun-14 16:00N 35°28' E 139°42'0 0.1
2018-Jun-14 15:27N 35°28' E 139°42'0 0.0
2018-Jun-14 15:00N 35°28' E 139°42'0 0.0
2018-Jun-14 14:30N 35°28' E 139°42'0 0.0
2018-Jun-14 14:00N 35°28' E 139°42'0 0.0
2018-Jun-14 13:30N 35°28' E 139°42'0 0.0
2018-Jun-14 13:00N 35°28' E 139°42'0 0.0
2018-Jun-14 12:30N 35°28' E 139°42'1 1.1
2018-Jun-14 12:00N 35°28' E 139°42'1 2.5
2018-Jun-14 11:30N 35°27' E 139°42'0 0.0
2018-Jun-14 10:59N 35°27' E 139°42'0 0.0
2018-Jun-14 10:29N 35°27' E 139°42'0 0.0
2018-Jun-14 09:59N 35°27' E 139°42'0 0.0
2018-Jun-14 09:29N 35°27' E 139°42'0 0.0
2018-Jun-14 08:59N 35°27' E 139°42'0 0.0
2018-Jun-14 08:29N 35°27' E 139°42'0 0.0
2018-Jun-14 07:59N 35°27' E 139°42'0 0.0
2018-Jun-14 07:26N 35°27' E 139°42'0 0.0
2018-Jun-14 06:59N 35°27' E 139°42'1 1.7
2018-Jun-14 06:30N 35°27' E 139°43'5 9.8
2018-Jun-14 06:00N 35°30' E 139°48'611.9
2018-Jun-14 05:28N 35°34' E 139°54'4 0.4
2018-Jun-13 19:00N 35°30' E 139°53'611.5
2018-Jun-13 18:30N 35°25' E 139°48'611.3
2018-Jun-13 18:00N 35°21' E 139°45'510.9
2018-Jun-13 17:30N 35°15' E 139°47'24910.3
2018-Jun-12 17:16N 33°50' E 135°03'412.3
2018-Jun-12 16:59N 33°53' E 135°00'1012.3
2018-Jun-12 16:08N 34°01' E 134°52'412.0
2018-Jun-12 15:49N 34°03' E 134°49'2112.2
2018-Jun-12 14:05N 34°18' E 134°30'111.4
2018-Jun-12 13:59N 34°18' E 134°29'611.7
2018-Jun-12 13:30N 34°20' E 134°23'  

Dump ship's entire track history